Time;durP1;ratioP1;P1;durP2;ratioP2;P2;SDS_P1;SDS_P2;PMS_P1;PMS_P2;Temp;Humidity;BMP_temperature;BMP_pressure;BME280_temperature;BME280_humidity;BME280_pressure;Samples;Min_cycle;Max_cycle;Signal;HPM_P1;HPM_P2
2022/05/02 00:01:01;;;;;;;4.78;4.35;;;20.10;58.20;;;;;;4992091;28;20192;-70
2022/05/02 00:03:27;;;;;;;4.07;3.78;;;20.10;58.20;;;;;;4991695;28;20216;-70
2022/05/02 00:05:52;;;;;;;3.70;3.40;;;20.20;58.30;;;;;;4991885;28;20752;-70
2022/05/02 00:08:18;;;;;;;3.72;3.42;;;20.10;58.20;;;;;;4991913;28;20311;-69
2022/05/02 00:10:44;;;;;;;3.55;3.25;;;20.10;58.20;;;;;;4975502;28;20199;-69
2022/05/02 00:13:10;;;;;;;3.65;3.35;;;20.20;58.30;;;;;;4975436;28;20208;-70
2022/05/02 00:15:38;;;;;;;3.83;3.42;;;20.10;58.20;;;;;;4991698;28;20189;-69
2022/05/02 00:18:05;;;;;;;3.58;3.28;;;20.10;58.20;;;;;;4991473;28;20189;-70
2022/05/02 00:20:37;;;;;;;3.45;3.13;;;20.20;58.20;;;;;;4991406;28;20191;-69
2022/05/02 00:23:09;;;;;;;3.20;3.00;;;20.10;58.10;;;;;;4991540;28;20291;-70
2022/05/02 00:25:35;;;;;;;3.28;3.08;;;20.10;58.20;;;;;;5008011;28;20177;-69
2022/05/02 00:28:04;;;;;;;3.10;2.90;;;20.10;58.10;;;;;;5007818;28;20220;-70
2022/05/02 00:30:31;;;;;;;3.45;3.22;;;20.10;58.10;;;;;;4991212;28;20213;-70
2022/05/02 00:32:58;;;;;;;4.15;3.85;;;20.10;58.10;;;;;;4991293;28;20209;-69
2022/05/02 00:35:25;;;;;;;4.20;3.80;;;20.10;58.10;;;;;;4991490;28;20185;-70
2022/05/02 00:37:50;;;;;;;4.55;4.20;;;20.10;58.10;;;;;;4993911;28;20185;-70
2022/05/02 00:40:18;;;;;;;4.28;3.97;;;20.10;58.00;;;;;;5011186;28;20185;-70
2022/05/02 00:42:46;;;;;;;4.20;3.90;;;20.10;58.10;;;;;;5011697;28;20216;-70
2022/05/02 00:45:15;;;;;;;4.65;3.80;;;20.10;58.00;;;;;;4994988;28;20184;-70
2022/05/02 00:47:48;;;;;;;4.75;4.25;;;20.10;58.00;;;;;;4994876;28;20311;-70
2022/05/02 00:50:13;;;;;;;3.85;3.55;;;20.10;58.10;;;;;;5011183;28;20283;-70
2022/05/02 00:52:40;;;;;;;3.53;3.22;;;20.10;58.00;;;;;;4978790;28;20181;-70
2022/05/02 00:55:08;;;;;;;3.47;3.17;;;20.10;58.10;;;;;;4994612;28;20184;-69
2022/05/02 00:57:34;;;;;;;3.33;3.03;;;20.10;58.10;;;;;;4994750;28;20189;-69
2022/05/02 01:00:02;;;;;;;3.70;3.40;;;20.10;58.00;;;;;;4994805;28;20181;-69
2022/05/02 01:02:28;;;;;;;3.20;2.85;;;20.10;58.00;;;;;;4995827;28;20193;-69
2022/05/02 01:04:54;;;;;;;3.17;2.97;;;20.10;58.00;;;;;;5010827;28;20207;-69
2022/05/02 01:07:20;;;;;;;3.40;3.17;;;20.10;57.90;;;;;;4994650;28;20212;-69
2022/05/02 01:09:48;;;;;;;3.22;3.03;;;20.10;57.90;;;;;;5010736;28;20181;-70
2022/05/02 01:12:22;;;;;;;3.42;3.13;;;20.10;57.90;;;;;;4994599;28;20185;-70
2022/05/02 01:14:52;;;;;;;3.60;3.30;;;20.10;57.90;;;;;;5010998;28;20224;-69
2022/05/02 01:17:19;;;;;;;3.40;3.10;;;20.10;57.90;;;;;;5011125;28;20181;-69
2022/05/02 01:19:45;;;;;;;4.10;3.80;;;20.10;57.90;;;;;;4994143;28;20244;-69
2022/05/02 01:22:11;;;;;;;3.63;3.33;;;20.10;57.90;;;;;;4978531;28;20213;-69
2022/05/02 01:24:41;;;;;;;4.13;3.83;;;20.10;57.90;;;;;;4994250;28;20208;-69
2022/05/02 01:27:09;;;;;;;4.45;4.05;;;20.10;57.90;;;;;;5010522;28;20239;-69
2022/05/02 01:29:38;;;;;;;4.93;4.53;;;20.10;57.90;;;;;;4993934;28;20577;-70
2022/05/02 01:32:07;;;;;;;3.97;3.67;;;20.10;57.80;;;;;;4994466;28;20189;-69
2022/05/02 01:34:40;;;;;;;4.28;3.88;;;20.10;57.80;;;;;;4995252;28;20210;-70
2022/05/02 01:37:08;;;;;;;3.60;3.30;;;20.10;57.80;;;;;;5010432;28;20199;-69
2022/05/02 01:39:34;;;;;;;3.47;3.17;;;20.10;57.80;;;;;;4993862;28;20192;-70
2022/05/02 01:42:02;;;;;;;3.70;3.40;;;20.10;57.80;;;;;;4994404;28;20208;-69
2022/05/02 01:44:28;;;;;;;3.85;3.05;;;20.00;57.70;;;;;;4995073;28;20201;-69
2022/05/02 01:46:55;;;;;;;3.70;3.40;;;20.10;57.80;;;;;;4993938;28;20219;-69
2022/05/02 01:49:21;;;;;;;3.25;3.03;;;20.10;57.80;;;;;;5009520;28;20213;-69
2022/05/02 01:51:47;;;;;;;3.15;2.95;;;20.10;57.70;;;;;;5010376;28;20173;-70
2022/05/02 01:54:13;;;;;;;3.53;3.25;;;20.10;57.70;;;;;;4993855;28;20204;-70
2022/05/02 01:56:39;;;;;;;3.05;2.85;;;20.10;57.80;;;;;;4993951;28;20683;-69
2022/05/02 01:59:05;;;;;;;3.17;2.92;;;20.10;57.70;;;;;;4993799;28;20208;-69
2022/05/02 02:01:32;;;;;;;2.88;2.67;;;20.10;57.70;;;;;;4977725;28;20692;-69
2022/05/02 02:06:50;;;;;;;4.32;4.00;;;20.10;57.70;;;;;;4963841;28;20207;-69
2022/05/02 02:09:16;;;;;;;4.75;4.35;;;20.00;57.60;;;;;;4993527;28;20223;-69
2022/05/02 02:11:42;;;;;;;4.38;3.97;;;20.10;57.70;;;;;;5018219;28;20223;-69
2022/05/02 02:14:08;;;;;;;4.03;3.40;;;20.10;57.60;;;;;;5009603;28;20232;-69
2022/05/02 02:16:34;;;;;;;4.18;3.88;;;20.10;57.70;;;;;;5009945;28;20231;-69
2022/05/02 02:18:59;;;;;;;3.40;3.20;;;20.10;57.60;;;;;;4993620;28;20192;-70
2022/05/02 02:21:26;;;;;;;3.30;3.10;;;20.00;57.60;;;;;;5009430;28;20291;-70
2022/05/02 02:23:52;;;;;;;3.38;3.08;;;20.10;57.60;;;;;;5026724;28;20208;-69
2022/05/02 02:26:18;;;;;;;3.40;3.20;;;20.10;57.60;;;;;;5029253;28;20192;-69
2022/05/02 02:28:43;;;;;;;3.03;2.83;;;20.10;57.60;;;;;;5028877;28;20745;-69
2022/05/02 02:31:09;;;;;;;3.40;3.13;;;20.10;57.60;;;;;;5029178;28;20188;-69
2022/05/02 02:33:35;;;;;;;3.50;3.20;;;20.00;57.60;;;;;;5028982;28;20204;-70
2022/05/02 02:36:01;;;;;;;3.78;3.47;;;20.00;57.60;;;;;;5029056;28;20188;-69
2022/05/02 02:38:27;;;;;;;3.30;3.10;;;20.10;57.60;;;;;;5012599;28;20188;-70
2022/05/02 02:40:52;;;;;;;3.10;2.80;;;20.00;57.50;;;;;;5013778;28;20184;-70
2022/05/02 02:43:18;;;;;;;3.00;2.80;;;20.00;57.50;;;;;;5028648;28;20262;-70
2022/05/02 02:45:44;;;;;;;3.35;3.15;;;20.00;57.60;;;;;;5028903;28;20176;-70
2022/05/02 02:48:10;;;;;;;2.95;2.72;;;20.10;57.60;;;;;;5028693;28;20620;-70
2022/05/02 02:50:36;;;;;;;3.92;3.63;;;20.00;57.50;;;;;;5028933;28;20188;-69
2022/05/02 02:53:02;;;;;;;3.97;3.67;;;20.00;57.50;;;;;;5012222;28;20207;-69
2022/05/02 02:55:27;;;;;;;4.03;3.70;;;20.00;57.50;;;;;;5028632;28;20188;-70
2022/05/02 02:57:54;;;;;;;4.38;4.07;;;20.00;57.50;;;;;;5028731;28;20267;-69
2022/05/02 03:00:20;;;;;;;4.38;4.07;;;20.00;57.50;;;;;;5028263;28;20195;-69
2022/05/02 03:02:46;;;;;;;4.90;4.50;;;20.00;58.10;;;;;;5028301;28;20212;-69
2022/05/02 03:07:58;;;;;;;3.78;3.47;;;20.00;57.50;;;;;;5013209;28;20243;-69
2022/05/02 03:10:25;;;;;;;3.75;3.45;;;20.00;57.50;;;;;;5028182;28;20196;-69
2022/05/02 03:12:50;;;;;;;3.60;3.35;;;20.00;57.50;;;;;;5028267;28;20200;-69
2022/05/02 03:15:16;;;;;;;2.95;2.75;;;20.10;57.60;;;;;;5028420;28;20242;-70
2022/05/02 03:17:42;;;;;;;3.40;3.20;;;20.00;57.50;;;;;;5028341;28;20214;-69
2022/05/02 03:20:09;;;;;;;3.38;3.10;;;20.00;57.50;;;;;;5011851;28;20194;-69
2022/05/02 03:22:34;;;;;;;3.35;3.05;;;20.00;57.50;;;;;;5028164;28;20202;-69
2022/05/02 03:25:00;;;;;;;3.40;3.10;;;20.00;57.60;;;;;;5011931;28;20188;-69
2022/05/02 03:27:26;;;;;;;3.60;3.30;;;20.00;57.50;;;;;;5011925;28;20188;-69
2022/05/02 03:29:52;;;;;;;3.13;2.92;;;20.00;57.50;;;;;;5027973;28;20286;-69
2022/05/02 03:32:18;;;;;;;3.05;2.85;;;20.00;57.50;;;;;;5028218;28;20290;-69
2022/05/02 03:34:44;;;;;;;3.22;3.03;;;20.00;57.40;;;;;;5028106;28;20218;-70
2022/05/02 03:37:10;;;;;;;3.38;3.08;;;20.00;57.50;;;;;;5028167;28;20180;-69
2022/05/02 03:39:35;;;;;;;3.35;3.15;;;20.00;57.40;;;;;;5027839;28;20563;-69
2022/05/02 03:42:01;;;;;;;3.97;3.67;;;20.00;57.50;;;;;;5027913;28;20192;-69
2022/05/02 03:44:27;;;;;;;3.83;3.53;;;20.00;57.50;;;;;;5011633;28;20230;-70
2022/05/02 03:46:53;;;;;;;4.32;3.92;;;20.00;57.50;;;;;;5011740;28;20192;-69
2022/05/02 03:49:18;;;;;;;4.35;4.05;;;20.00;57.50;;;;;;5028007;28;20274;-69
2022/05/02 03:51:44;;;;;;;4.60;4.20;;;20.00;57.40;;;;;;5012693;28;20190;-69
2022/05/02 03:54:10;;;;;;;5.07;4.68;;;20.00;57.40;;;;;;5027938;28;20203;-69
2022/05/02 03:56:36;;;;;;;4.78;4.38;;;20.00;57.40;;;;;;5028041;28;20203;-69
2022/05/02 03:59:02;;;;;;;4.43;4.13;;;20.00;57.40;;;;;;5027597;28;20644;-70
2022/05/02 04:01:28;;;;;;;4.22;3.92;;;20.00;57.40;;;;;;5027901;28;20184;-70
2022/05/02 04:03:54;;;;;;;5.00;4.60;;;20.00;57.40;;;;;;5051495;22;20235;-70
2022/05/02 04:06:19;;;;;;;4.10;3.80;;;20.00;57.40;;;;;;5011126;28;20565;-70
2022/05/02 04:08:46;;;;;;;3.97;3.67;;;20.00;57.40;;;;;;5010741;28;20212;-70
2022/05/02 04:11:11;;;;;;;3.33;3.13;;;20.00;57.50;;;;;;5010550;28;20220;-70
2022/05/02 04:13:37;;;;;;;3.30;3.00;;;20.00;57.50;;;;;;5014316;28;20240;-70
2022/05/02 04:16:04;;;;;;;3.45;3.25;;;20.00;57.40;;;;;;5015320;28;20183;-70
2022/05/02 04:18:30;;;;;;;3.35;3.05;;;20.00;57.50;;;;;;5014966;28;20180;-71
2022/05/02 04:20:55;;;;;;;3.63;3.33;;;20.00;57.40;;;;;;5014648;28;20183;-71
2022/05/02 04:23:21;;;;;;;3.42;3.10;;;20.00;57.40;;;;;;5015829;28;20203;-71
2022/05/02 04:25:47;;;;;;;3.58;3.28;;;20.00;57.40;;;;;;5014510;28;20176;-71
2022/05/02 04:28:13;;;;;;;3.13;2.85;;;20.00;57.40;;;;;;5014981;28;20245;-70
2022/05/02 04:30:38;;;;;;;2.88;2.67;;;20.00;57.50;;;;;;5014695;28;20533;-71
2022/05/02 04:33:05;;;;;;;3.00;2.80;;;20.00;57.50;;;;;;5005681;28;20185;-71
2022/05/02 04:35:31;;;;;;;4.60;3.30;;;20.00;57.50;;;;;;4996423;28;20200;-70
2022/05/02 04:37:58;;;;;;;3.03;2.75;;;20.00;57.80;;;;;;4995292;28;20604;-72
2022/05/02 04:40:24;;;;;;;3.95;2.92;;;20.00;57.90;;;;;;4978589;28;20193;-71
2022/05/02 04:42:50;;;;;;;4.80;3.85;;;20.00;58.20;;;;;;4978817;28;20199;-70
2022/05/02 04:45:16;;;;;;;5.40;3.80;;;20.00;58.50;;;;;;4995254;28;20259;-70
2022/05/02 04:47:41;;;;;;;5.60;4.10;;;20.00;58.70;;;;;;4994739;28;20192;-70
2022/05/02 04:50:08;;;;;;;6.13;4.35;;;20.00;58.70;;;;;;4978584;28;20196;-70
2022/05/02 04:52:33;;;;;;;4.18;3.78;;;20.10;58.70;;;;;;4984261;28;20177;-70
2022/05/02 04:54:59;;;;;;;8.30;4.90;;;20.00;58.80;;;;;;4992538;28;20298;-70
2022/05/02 04:57:25;;;;;;;8.00;4.53;;;20.00;58.90;;;;;;5014426;28;20208;-70
2022/05/02 04:59:50;;;;;;;13.02;4.57;;;20.10;59.10;;;;;;5014365;28;20238;-70
2022/05/02 05:02:16;;;;;;;7.35;4.35;;;20.10;59.20;;;;;;5014304;28;20180;-70
2022/05/02 05:04:42;;;;;;;4.55;4.03;;;20.10;59.20;;;;;;5015409;28;20211;-70
2022/05/02 05:07:08;;;;;;;5.20;3.42;;;20.10;59.40;;;;;;4998168;28;20184;-70
2022/05/02 05:09:33;;;;;;;5.78;3.97;;;20.00;59.40;;;;;;5013872;28;20203;-70
2022/05/02 05:12:32;;;;;;;4.47;3.30;;;20.10;59.40;;;;;;5014385;28;20192;-70
2022/05/02 05:18:04;;;;;;;7.25;3.45;;;20.10;59.10;;;;;;5013783;28;20212;-70
2022/05/02 05:20:43;;;;;;;6.93;4.65;;;20.10;59.00;;;;;;5014483;28;20180;-70
2022/05/02 05:23:43;;;;;;;5.65;4.38;;;20.10;59.00;;;;;;4996218;28;20192;-70
2022/05/02 05:26:16;;;;;;;4.85;2.92;;;20.10;58.90;;;;;;5013365;28;20184;-70
2022/05/02 05:29:15;;;;;;;4.38;3.10;;;20.10;58.80;;;;;;4997140;28;20216;-70
2022/05/02 05:31:40;;;;;;;4.55;2.97;;;20.10;58.70;;;;;;5014574;28;20191;-70
2022/05/02 05:34:22;;;;;;;6.95;3.47;;;20.10;58.70;;;;;;5013170;28;20303;-71
2022/05/02 05:37:37;;;;;;;7.80;4.30;;;20.10;58.60;;;;;;5009905;28;20721;-71
2022/05/02 05:40:16;;;;;;;6.10;3.10;;;20.10;58.60;;;;;;5009418;28;20265;-70
2022/05/02 05:43:23;;;;;;;5.75;3.50;;;20.10;58.60;;;;;;5013076;28;20215;-70
2022/05/02 05:46:23;;;;;;;3.42;2.95;;;20.20;58.60;;;;;;5013203;28;20239;-70
2022/05/02 05:49:13;;;;;;;6.25;4.00;;;20.10;58.40;;;;;;5012897;28;20208;-70
2022/05/02 05:51:52;;;;;;;5.35;3.35;;;20.20;58.50;;;;;;5012975;28;20188;-70
2022/05/02 05:54:51;;;;;;;6.50;3.30;;;20.20;58.50;;;;;;5014056;28;20295;-70
2022/05/02 05:57:48;;;;;;;6.35;3.20;;;20.20;58.40;;;;;;5012762;28;20187;-70
2022/05/02 06:00:15;;;;;;;8.27;4.13;;;20.20;58.40;;;;;;5012965;28;20600;-70
2022/05/02 06:03:12;;;;;;;4.43;4.00;;;20.20;58.40;;;;;;5012897;28;20195;-70
2022/05/02 06:05:41;;;;;;;5.15;3.80;;;20.20;58.30;;;;;;5012768;28;20187;-70
2022/05/02 06:08:19;;;;;;;6.65;3.55;;;20.20;58.30;;;;;;5012327;28;20227;-70
2022/05/02 06:10:47;;;;;;;5.47;3.55;;;20.20;58.30;;;;;;5012463;28;20191;-70
2022/05/02 06:13:18;;;;;;;3.78;3.22;;;20.20;58.20;;;;;;5013770;28;20184;-70
2022/05/02 06:18:37;;;;;;;3.75;3.33;;;20.20;58.20;;;;;;5013554;28;20275;-70
2022/05/02 06:21:07;;;;;;;3.72;3.42;;;20.20;58.20;;;;;;4996034;28;20180;-71
2022/05/02 06:23:42;;;;;;;4.53;4.07;;;20.20;58.20;;;;;;5012180;28;20235;-70
2022/05/02 06:26:10;;;;;;;4.68;4.22;;;20.20;58.20;;;;;;5012376;28;20269;-70
2022/05/02 06:28:46;;;;;;;4.38;3.70;;;20.20;58.20;;;;;;5012140;28;20208;-71
2022/05/02 06:31:28;;;;;;;4.65;3.63;;;20.20;58.20;;;;;;5012050;28;20179;-70
2022/05/02 06:33:58;;;;;;;4.18;3.08;;;20.20;58.10;;;;;;5012163;28;20200;-70
2022/05/02 06:36:39;;;;;;;3.55;3.25;;;20.20;58.10;;;;;;5012017;28;20199;-70
2022/05/02 06:39:44;;;;;;;3.40;3.10;;;20.20;58.10;;;;;;5011825;28;20235;-71
2022/05/02 06:42:39;;;;;;;3.88;3.38;;;20.30;58.10;;;;;;4977174;28;20243;-70
2022/05/02 06:45:29;;;;;;;3.97;3.67;;;20.30;58.10;;;;;;4976381;28;20213;-70
2022/05/02 06:48:37;;;;;;;4.10;3.65;;;20.30;58.10;;;;;;4992089;28;20216;-71
2022/05/02 06:51:13;;;;;;;3.55;3.25;;;20.30;58.00;;;;;;4976329;28;20172;-71
2022/05/02 06:54:03;;;;;;;3.47;3.17;;;20.30;58.00;;;;;;4992104;28;20214;-70
2022/05/02 06:57:17;;;;;;;3.88;3.47;;;20.30;58.00;;;;;;4992219;28;20188;-70
2022/05/02 07:00:03;;;;;;;6.07;3.72;;;20.30;57.80;;;;;;4991926;28;20220;-70
2022/05/02 07:03:04;;;;;;;3.60;3.30;;;20.40;57.90;;;;;;4992247;28;20193;-71
2022/05/02 07:06:11;;;;;;;3.95;3.05;;;20.40;57.90;;;;;;4991957;28;20239;-71
2022/05/02 07:09:00;;;;;;;3.67;3.38;;;20.40;58.60;;;;;;4954980;28;20618;-70
2022/05/02 07:11:47;;;;;;;3.80;3.50;;;20.40;58.00;;;;;;4991598;28;20188;-70
2022/05/02 07:14:32;;;;;;;3.40;3.10;;;20.40;57.90;;;;;;4975534;28;20200;-70
2022/05/02 07:17:11;;;;;;;3.10;2.90;;;20.40;58.00;;;;;;4991796;28;20192;-70
2022/05/02 07:19:56;;;;;;;3.30;3.10;;;20.40;58.10;;;;;;4991689;28;20275;-70
2022/05/02 07:22:43;;;;;;;3.47;3.05;;;20.50;58.20;;;;;;4991698;28;20193;-70
2022/05/02 07:25:12;;;;;;;4.25;3.60;;;20.50;58.20;;;;;;4991804;28;20205;-71
2022/05/02 07:27:56;;;;;;;3.78;3.47;;;20.50;58.20;;;;;;4975474;28;20231;-70
2022/05/02 07:30:24;;;;;;;3.70;3.40;;;20.50;58.20;;;;;;4975964;28;20192;-70
2022/05/02 07:32:53;;;;;;;3.40;3.10;;;20.50;58.30;;;;;;4991480;28;20193;-70
2022/05/02 07:35:21;;;;;;;3.58;3.28;;;20.60;58.30;;;;;;4992742;28;20208;-71
2022/05/02 07:37:48;;;;;;;3.53;3.20;;;20.60;58.40;;;;;;4975521;28;20258;-70
2022/05/02 07:40:19;;;;;;;3.47;3.20;;;20.60;58.40;;;;;;5007994;28;20185;-71
2022/05/02 07:42:46;;;;;;;3.58;3.05;;;20.60;58.50;;;;;;5007761;28;20280;-70
2022/05/02 07:45:17;;;;;;;3.35;3.05;;;20.60;58.50;;;;;;5008316;28;20219;-70
2022/05/02 07:47:47;;;;;;;3.40;3.10;;;20.60;58.60;;;;;;5010218;28;20204;-71
2022/05/02 07:50:18;;;;;;;4.22;3.80;;;20.60;58.60;;;;;;5011070;28;20184;-70
2022/05/02 07:52:47;;;;;;;3.63;3.33;;;20.60;58.70;;;;;;4994503;28;20188;-71
2022/05/02 07:55:14;;;;;;;3.58;3.28;;;20.60;58.80;;;;;;5010761;28;20702;-71
2022/05/02 07:57:42;;;;;;;3.80;3.50;;;20.60;58.70;;;;;;5010915;28;20212;-71
2022/05/02 08:00:12;;;;;;;3.42;3.10;;;20.60;58.70;;;;;;5010604;28;20188;-71
2022/05/02 08:02:38;;;;;;;3.75;3.33;;;20.70;58.80;;;;;;5011011;28;20188;-71
2022/05/02 08:05:06;;;;;;;3.35;3.08;;;20.70;58.80;;;;;;5010916;28;20215;-71
2022/05/02 08:07:40;;;;;;;4.25;3.70;;;20.70;58.80;;;;;;5011875;28;20655;-70
2022/05/02 08:10:39;;;;;;;3.75;3.40;;;20.70;58.60;;;;;;5010643;28;20214;-70
2022/05/02 08:13:29;;;;;;;3.38;3.08;;;20.70;58.60;;;;;;4994287;28;20184;-71
2022/05/02 08:16:23;;;;;;;3.47;3.17;;;20.70;58.60;;;;;;5010865;28;20192;-71
2022/05/02 08:19:01;;;;;;;3.70;3.40;;;20.70;58.50;;;;;;4994239;28;20188;-70
2022/05/02 08:21:43;;;;;;;4.72;3.53;;;20.70;58.60;;;;;;4994061;28;20278;-70
2022/05/02 08:27:32;;;;;;;3.03;2.80;;;20.70;58.50;;;;;;5010410;28;20226;-71
2022/05/02 08:30:21;;;;;;;3.47;3.17;;;20.70;58.70;;;;;;5010524;28;20678;-70
2022/05/02 08:33:04;;;;;;;3.15;2.95;;;20.70;58.60;;;;;;4991135;28;20239;-71
2022/05/02 08:35:55;;;;;;;3.72;3.42;;;20.70;58.50;;;;;;5011598;28;20234;-70
2022/05/02 08:38:50;;;;;;;3.25;3.05;;;20.70;58.60;;;;;;5010749;28;20670;-70
2022/05/02 08:41:32;;;;;;;3.53;3.22;;;20.70;58.60;;;;;;4994139;28;20648;-70
2022/05/02 08:44:38;;;;;;;3.40;3.20;;;20.70;58.70;;;;;;5010432;28;20208;-71
2022/05/02 08:47:57;;;;;;;3.60;3.30;;;20.70;58.80;;;;;;5011502;28;20246;-71
2022/05/02 08:50:52;;;;;;;3.38;3.08;;;20.80;58.70;;;;;;5005330;28;20204;-70
2022/05/02 08:54:11;;;;;;;3.33;3.03;;;20.80;58.60;;;;;;5010391;28;20267;-70
2022/05/02 08:57:16;;;;;;;3.53;2.90;;;20.80;58.50;;;;;;5010358;28;20640;-70
2022/05/02 09:00:06;;;;;;;3.40;3.20;;;20.80;58.50;;;;;;4997238;28;20234;-71
2022/05/02 09:03:05;;;;;;;3.10;2.90;;;20.80;58.40;;;;;;5014018;28;20184;-70
2022/05/02 09:05:43;;;;;;;3.40;3.10;;;20.80;58.50;;;;;;4997460;28;20191;-70
2022/05/02 09:08:40;;;;;;;3.63;3.33;;;20.80;58.40;;;;;;5013708;28;20219;-70
2022/05/02 09:11:39;;;;;;;3.47;3.17;;;20.80;58.30;;;;;;5013864;28;20191;-70
2022/05/02 09:14:27;;;;;;;3.33;3.13;;;20.80;58.50;;;;;;5013582;28;20204;-70
2022/05/02 09:17:28;;;;;;;3.28;3.08;;;20.80;58.40;;;;;;5013783;28;20202;-71
2022/05/02 09:20:24;;;;;;;2.95;2.75;;;20.80;58.50;;;;;;5013967;28;20176;-71
2022/05/02 09:23:11;;;;;;;3.50;3.20;;;20.80;58.50;;;;;;4997698;28;20177;-70
2022/05/02 09:26:11;;;;;;;3.50;3.20;;;20.80;58.50;;;;;;4987786;28;20177;-70
2022/05/02 09:29:10;;;;;;;3.45;3.15;;;20.80;58.60;;;;;;4994089;28;20348;-71
2022/05/02 09:32:11;;;;;;;3.20;3.00;;;20.80;58.60;;;;;;4993936;28;20188;-70
2022/05/02 09:34:56;;;;;;;3.20;2.90;;;20.80;58.50;;;;;;4987852;28;20224;-71
2022/05/02 09:37:56;;;;;;;3.03;2.75;;;20.80;58.40;;;;;;4994022;28;20687;-70
2022/05/02 09:40:37;;;;;;;3.35;3.05;;;20.80;58.30;;;;;;5010081;28;20245;-71
2022/05/02 09:50:31;;;;;;;4.05;2.95;;;20.90;58.40;;;;;;4966298;28;20588;-70
2022/05/02 09:53:45;;;;;;;3.88;3.35;;;20.90;58.40;;;;;;5013264;28;20262;-71
2022/05/02 09:56:41;;;;;;;3.53;3.22;;;20.90;58.30;;;;;;5013306;28;20176;-70
2022/05/02 09:59:25;;;;;;;3.47;3.17;;;20.90;58.30;;;;;;4996982;28;20178;-70
2022/05/02 10:02:07;;;;;;;3.33;3.13;;;20.90;58.30;;;;;;4996841;28;20651;-70
2022/05/02 10:05:08;;;;;;;4.82;3.20;;;20.90;58.30;;;;;;5019965;23;20239;-69
2022/05/02 10:07:55;;;;;;;3.78;2.90;;;20.90;58.30;;;;;;5030103;28;20597;-69
2022/05/02 10:10:45;;;;;;;3.17;2.97;;;20.90;58.80;;;;;;5028847;28;20192;-69
2022/05/02 10:13:26;;;;;;;3.38;3.00;;;20.90;58.40;;;;;;5013273;28;20172;-69
2022/05/02 10:16:25;;;;;;;3.42;3.10;;;20.90;58.40;;;;;;5029593;28;20214;-69
2022/05/02 10:19:19;;;;;;;3.88;3.05;;;20.90;58.40;;;;;;5016341;28;20233;-70
2022/05/02 10:22:34;;;;;;;3.35;3.05;;;20.90;58.60;;;;;;5016031;28;20188;-69
2022/05/02 10:25:15;;;;;;;4.38;3.63;;;20.90;58.80;;;;;;4992581;28;20225;-70
2022/05/02 10:28:07;;;;;;;6.03;3.85;;;20.90;59.20;;;;;;5049800;28;20207;-68
2022/05/02 10:31:09;;;;;;;4.60;3.78;;;20.90;59.60;;;;;;5016299;28;20210;-69
2022/05/02 10:33:49;;;;;;;5.07;4.10;;;20.90;60.20;;;;;;5033053;28;20159;-69
2022/05/02 10:36:18;;;;;;;4.72;3.97;;;20.90;59.80;;;;;;5032430;28;20214;-69
2022/05/02 10:38:54;;;;;;;4.78;3.80;;;20.90;59.70;;;;;;5016306;28;20282;-69
2022/05/02 10:41:27;;;;;;;7.57;4.13;;;20.90;59.80;;;;;;5032581;28;20187;-69
2022/05/02 10:44:02;;;;;;;8.05;3.80;;;21.00;60.10;;;;;;5032447;28;20188;-69
2022/05/02 10:46:31;;;;;;;6.30;4.00;;;21.00;60.30;;;;;;5049170;28;20178;-69
2022/05/02 10:49:41;;;;;;;4.80;3.72;;;21.00;60.30;;;;;;5032181;28;20203;-69
2022/05/02 10:52:19;;;;;;;5.05;4.10;;;20.90;60.10;;;;;;5012493;28;20184;-69
2022/05/02 10:55:02;;;;;;;6.32;3.42;;;21.00;60.20;;;;;;5017728;28;20207;-69
2022/05/02 10:57:34;;;;;;;7.00;3.50;;;21.00;60.10;;;;;;5045250;28;20187;-69
2022/05/02 11:00:12;;;;;;;4.18;3.30;;;20.90;59.90;;;;;;5013566;28;20200;-69
2022/05/02 11:03:04;;;;;;;5.82;3.88;;;21.00;59.90;;;;;;5031023;28;20536;-69
2022/05/02 11:06:07;;;;;;;3.90;3.50;;;21.00;59.90;;;;;;5012483;28;20223;-69
2022/05/02 11:08:53;;;;;;;4.45;3.70;;;21.00;59.90;;;;;;5048328;28;20322;-69
2022/05/02 11:11:41;;;;;;;3.97;3.15;;;20.90;59.70;;;;;;5019985;28;20179;-69
2022/05/02 11:14:36;;;;;;;6.15;3.58;;;21.00;59.80;;;;;;5032061;28;20187;-68
2022/05/02 11:17:33;;;;;;;5.05;3.67;;;21.00;59.80;;;;;;5015181;28;20190;-68
2022/05/02 11:20:41;;;;;;;3.83;3.47;;;21.00;59.80;;;;;;5031978;28;20176;-69
2022/05/02 11:23:36;;;;;;;3.97;3.30;;;21.00;59.80;;;;;;5030812;28;20183;-69
2022/05/02 11:27:03;;;;;;;7.82;3.60;;;21.00;59.80;;;;;;5031563;28;20210;-69
2022/05/02 11:30:05;;;;;;;6.25;3.30;;;21.00;59.70;;;;;;5020895;28;20223;-68
2022/05/02 11:32:53;;;;;;;6.80;3.60;;;21.00;59.60;;;;;;5013054;28;20202;-69
2022/05/02 11:35:31;;;;;;;6.55;3.67;;;21.00;59.60;;;;;;5013015;28;20283;-69
2022/05/02 11:38:31;;;;;;;3.95;3.10;;;21.00;59.70;;;;;;5011830;28;20226;-69
2022/05/02 11:41:16;;;;;;;3.80;3.40;;;21.00;59.70;;;;;;5011469;28;20170;-69
2022/05/02 11:43:45;;;;;;;3.83;3.42;;;21.00;59.70;;;;;;5011899;28;20180;-69
2022/05/02 11:46:28;;;;;;;6.25;3.42;;;21.00;59.60;;;;;;5011703;28;20270;-69
2022/05/02 11:49:23;;;;;;;5.68;3.40;;;21.00;59.60;;;;;;5011775;28;20653;-70
2022/05/02 11:51:51;;;;;;;6.72;3.35;;;21.00;59.60;;;;;;5010905;28;20226;-69
2022/05/02 11:54:27;;;;;;;3.45;3.10;;;21.00;59.50;;;;;;5011864;28;20200;-69
2022/05/02 11:57:26;;;;;;;5.25;3.20;;;21.00;59.40;;;;;;4995481;28;20187;-69
2022/05/02 12:00:08;;;;;;;5.15;3.25;;;21.00;59.40;;;;;;5011606;28;20203;-69
2022/05/02 12:03:09;;;;;;;3.97;3.45;;;21.00;59.70;;;;;;4995022;28;20188;-70
2022/05/02 12:05:52;;;;;;;4.57;3.78;;;21.00;59.50;;;;;;5010656;28;20230;-70
2022/05/02 12:08:45;;;;;;;4.78;3.33;;;21.00;59.20;;;;;;5011300;28;20203;-69
2022/05/02 12:11:14;;;;;;;4.90;3.65;;;20.90;59.50;;;;;;5011372;28;20190;-69
2022/05/02 12:13:46;;;;;;;4.07;3.38;;;20.90;59.30;;;;;;5011406;28;20180;-69
2022/05/02 12:16:15;;;;;;;6.00;3.65;;;20.90;59.30;;;;;;4994710;28;20227;-69
2022/05/02 12:18:42;;;;;;;6.13;3.80;;;21.00;59.20;;;;;;5011507;28;20219;-69
2022/05/02 12:21:15;;;;;;;4.45;3.58;;;21.00;59.10;;;;;;5011437;28;20215;-69
2022/05/02 12:23:43;;;;;;;8.88;3.50;;;21.00;59.00;;;;;;5011455;28;20199;-69
2022/05/02 12:26:23;;;;;;;7.32;3.63;;;21.00;58.70;;;;;;4995011;28;20208;-67
2022/05/02 12:28:53;;;;;;;5.70;3.78;;;21.00;59.00;;;;;;5011252;28;20265;-69
2022/05/02 12:31:27;;;;;;;4.53;3.90;;;21.00;58.60;;;;;;5012526;28;20200;-69
2022/05/02 12:34:07;;;;;;;7.10;3.60;;;21.00;58.80;;;;;;5013538;28;20275;-69
2022/05/02 12:36:45;;;;;;;6.68;3.53;;;21.00;58.80;;;;;;5031466;28;20270;-69
2022/05/02 12:39:28;;;;;;;4.18;3.30;;;21.00;58.70;;;;;;5016116;28;20266;-69
2022/05/02 12:42:13;;;;;;;5.80;3.00;;;21.00;58.70;;;;;;5015794;28;20180;-69
2022/05/02 12:44:44;;;;;;;3.70;2.95;;;21.00;58.90;;;;;;5015036;28;20219;-70
2022/05/02 12:47:21;;;;;;;6.70;3.40;;;21.00;58.80;;;;;;5031091;28;20180;-69
2022/05/02 12:50:03;;;;;;;4.15;3.22;;;21.00;58.70;;;;;;5030904;28;20218;-69
2022/05/02 12:52:32;;;;;;;5.50;3.53;;;21.00;59.00;;;;;;5015816;28;20176;-69
2022/05/02 12:54:58;;;;;;;3.80;3.33;;;21.00;58.70;;;;;;5014402;28;20204;-69
2022/05/02 13:01:01;;;;;;;3.88;2.95;;;21.00;58.80;;;;;;4973947;28;20252;-70
2022/05/02 13:03:28;;;;;;;4.75;3.20;;;21.00;59.00;;;;;;4958377;28;20216;-69
2022/05/02 13:06:08;;;;;;;6.47;2.75;;;21.00;58.90;;;;;;4983331;28;20234;-69
2022/05/02 13:08:36;;;;;;;9.93;3.30;;;21.00;58.90;;;;;;5014499;28;20212;-69
2022/05/02 13:11:15;;;;;;;5.43;3.30;;;21.00;58.70;;;;;;5014561;28;20184;-69
2022/05/02 13:13:49;;;;;;;6.93;3.25;;;21.00;58.80;;;;;;5030691;28;20587;-69
2022/05/02 13:16:35;;;;;;;5.90;3.08;;;21.00;58.80;;;;;;5030627;28;20208;-70
2022/05/02 13:19:04;;;;;;;4.47;2.90;;;21.00;59.00;;;;;;5007119;28;20226;-69
2022/05/02 13:21:30;;;;;;;6.50;3.08;;;21.00;59.00;;;;;;5030760;28;20669;-69
2022/05/02 13:24:12;;;;;;;4.03;3.10;;;21.00;58.80;;;;;;5014294;28;20192;-67
2022/05/02 13:27:02;;;;;;;5.78;3.05;;;21.00;58.80;;;;;;5015336;28;20230;-68
2022/05/02 13:29:55;;;;;;;4.82;3.15;;;21.00;58.70;;;;;;5013707;28;20299;-69
2022/05/02 13:32:31;;;;;;;9.43;3.65;;;21.00;58.60;;;;;;5030383;28;20192;-69
2022/05/02 13:35:20;;;;;;;6.32;3.08;;;21.10;58.70;;;;;;5014772;28;20195;-70
2022/05/02 13:38:07;;;;;;;6.18;3.22;;;21.00;58.70;;;;;;5015985;28;20183;-70
2022/05/02 13:40:51;;;;;;;6.70;3.08;;;21.00;58.70;;;;;;5031751;28;20241;-70
2022/05/02 13:43:44;;;;;;;6.30;3.17;;;21.00;58.80;;;;;;5015752;28;20187;-69
2022/05/02 13:46:30;;;;;;;6.57;3.83;;;21.00;58.50;;;;;;5030851;28;20219;-70
2022/05/02 13:49:22;;;;;;;6.40;3.22;;;21.00;58.60;;;;;;5015344;28;20279;-70
2022/05/02 13:52:03;;;;;;;8.43;3.67;;;21.10;58.70;;;;;;5014439;28;20191;-70
2022/05/02 13:54:38;;;;;;;7.10;3.08;;;21.10;58.80;;;;;;5015800;28;20195;-70
2022/05/02 13:57:33;;;;;;;6.65;3.58;;;21.10;58.90;;;;;;5014287;28;20182;-71
2022/05/02 14:03:30;;;;;;;5.78;3.20;;;21.10;58.80;;;;;;5030960;28;20274;-69
2022/05/02 14:06:00;;;;;;;4.57;2.85;;;21.10;59.00;;;;;;5030499;28;20269;-70
2022/05/02 14:08:39;;;;;;;5.63;2.67;;;21.00;58.80;;;;;;5014123;28;20218;-70